Time;durP1;ratioP1;P1;durP2;ratioP2;P2;SDS_P1;SDS_P2;PMS_P1;PMS_P2;Temp;Humidity;BMP_temperature;BMP_pressure;BME280_temperature;BME280_humidity;BME280_pressure;Samples;Min_cycle;Max_cycle;Signal;HPM_P1;HPM_P2
2021/04/02 00:02:01;;;;;;;21.58;17.02;;;;;;;10.72;42.70;99519.63;5033500;28;20044;-78
2021/04/02 00:04:26;;;;;;;23.38;18.70;;;;;;;10.58;42.83;99501.94;5016735;28;20472;-78
2021/04/02 00:06:51;;;;;;;25.85;19.08;;;;;;;10.72;43.09;99538.94;5017952;28;20057;-78
2021/04/02 00:09:17;;;;;;;28.50;20.38;;;;;;;10.55;43.24;99512.84;5017733;28;20038;-77
2021/04/02 00:11:42;;;;;;;23.15;18.25;;;;;;;10.62;43.36;99526.97;5017795;28;20022;-77
2021/04/02 00:14:08;;;;;;;22.33;16.73;;;;;;;10.02;43.16;99417.75;5033157;28;20034;-78
2021/04/02 00:16:34;;;;;;;23.20;16.55;;;;;;;10.48;43.53;99510.09;5017527;28;20036;-78
2021/04/02 00:19:00;;;;;;;25.40;18.05;;;;;;;10.61;43.54;99527.97;5017176;28;20014;-78
2021/04/02 00:21:25;;;;;;;22.35;16.40;;;;;;;10.26;43.46;99476.63;5017602;28;20112;-78
2021/04/02 00:23:51;;;;;;;22.35;17.42;;;;;;;10.30;43.56;99478.72;5017639;28;20032;-78
2021/04/02 00:26:19;;;;;;;21.75;16.70;;;;;;;10.53;43.83;99507.75;5017517;28;20022;-79
2021/04/02 00:28:46;;;;;;;21.30;15.98;;;;;;;10.55;43.74;99513.69;5017686;28;20092;-78
2021/04/02 00:31:13;;;;;;;20.40;16.38;;;;;;;10.57;43.66;99511.69;5017488;28;20056;-78
2021/04/02 00:33:38;;;;;;;19.77;16.02;;;;;;;10.56;43.88;99517.97;5032583;28;20290;-78
2021/04/02 00:36:04;;;;;;;20.83;16.00;;;;;;;10.37;43.69;99481.47;5017371;28;20049;-78
2021/04/02 00:38:31;;;;;;;20.35;16.42;;;;;;;10.57;44.02;99501.13;5017105;28;20083;-78
2021/04/02 00:40:58;;;;;;;21.02;15.68;;;;;;;10.56;43.85;99502.13;5017324;28;20421;-78
2021/04/02 00:43:30;;;;;;;22.90;17.88;;;;;;;10.57;44.17;99500.28;5017092;28;20029;-78
2021/04/02 00:45:55;;;;;;;22.40;16.52;;;;;;;10.36;43.99;99479.81;5017141;28;20022;-77
2021/04/02 00:48:21;;;;;;;23.52;17.48;;;;;;;10.31;44.03;99466.34;5016747;28;20397;-78
2021/04/02 00:50:47;;;;;;;21.02;17.17;;;;;;;10.51;44.04;99493.91;5017132;28;20022;-78
2021/04/02 00:53:13;;;;;;;26.15;18.45;;;;;;;10.42;44.09;99481.78;5032496;28;20120;-78
2021/04/02 00:55:40;;;;;;;21.27;17.60;;;;;;;10.35;43.75;99472.91;5015814;28;20030;-77
2021/04/02 00:58:09;;;;;;;23.95;17.95;;;;;;;10.44;44.28;99496.44;5032353;28;20084;-77
2021/04/02 01:00:35;;;;;;;22.30;17.15;;;;;;;10.07;43.90;99449.69;5015663;28;20441;-77
2021/04/02 01:03:01;;;;;;;21.98;17.88;;;;;;;9.93;43.90;99420.63;5016645;28;20056;-77
2021/04/02 01:05:31;;;;;;;21.38;17.73;;;;;;;10.30;44.12;99488.47;5016606;28;20025;-78
2021/04/02 01:08:03;;;;;;;24.65;19.58;;;;;;;10.26;44.03;99485.34;5016483;28;20030;-78
2021/04/02 01:10:30;;;;;;;26.38;20.50;;;;;;;10.11;43.69;99466.81;5016568;28;20391;-77
2021/04/02 01:13:10;;;;;;;22.98;18.33;;;;;;;10.16;43.65;99476.81;5016530;28;20528;-77
2021/04/02 01:15:44;;;;;;;26.10;19.38;;;;;;;10.11;43.79;99477.34;5016410;28;20029;-77
2021/04/02 01:18:41;;;;;;;21.52;17.80;;;;;;;10.04;44.22;99481.69;5031971;28;20026;-78
2021/04/02 01:21:11;;;;;;;20.30;16.27;;;;;;;9.85;44.51;99479.53;5000787;28;20064;-77
2021/04/02 01:24:01;;;;;;;18.10;16.15;;;;;;;9.21;44.66;99386.66;5016414;28;20110;-77
2021/04/02 01:26:45;;;;;;;16.20;14.50;;;;;;;9.60;44.82;99476.19;5016337;28;20025;-77
2021/04/02 01:29:19;;;;;;;19.10;14.23;;;;;;;9.52;44.70;99469.16;5031668;28;20399;-77
2021/04/02 01:31:51;;;;;;;14.25;12.75;;;;;;;8.84;44.62;99380.22;5014578;28;20080;-76
2021/04/02 01:34:25;;;;;;;17.23;13.55;;;;;;;9.42;44.70;99470.34;5016150;28;20097;-77
2021/04/02 01:36:53;;;;;;;18.52;13.27;;;;;;;9.35;44.72;99458.84;5016401;28;20033;-76
2021/04/02 01:39:20;;;;;;;16.33;14.60;;;;;;;9.16;44.65;99439.03;5016161;28;20418;-76
2021/04/02 01:41:50;;;;;;;16.20;13.93;;;;;;;9.25;45.18;99464.34;5014966;28;20021;-76
2021/04/02 01:44:18;;;;;;;16.38;12.38;;;;;;;9.18;44.89;99460.75;5015097;28;20421;-78
2021/04/02 01:46:44;;;;;;;15.98;13.40;;;;;;;9.09;45.52;99465.22;5015876;28;20022;-76
2021/04/02 01:49:11;;;;;;;15.23;12.48;;;;;;;8.95;45.14;99444.06;5015759;28;20028;-77
2021/04/02 01:51:40;;;;;;;15.70;12.85;;;;;;;9.05;45.29;99457.84;5015833;28;20376;-77
2021/04/02 01:54:07;;;;;;;16.80;13.70;;;;;;;8.55;45.26;99369.47;5015886;28;20022;-77
2021/04/02 01:56:33;;;;;;;20.63;14.55;;;;;;;9.07;45.19;99450.59;5015828;28;20045;-77
2021/04/02 01:59:01;;;;;;;16.23;13.05;;;;;;;9.06;45.34;99454.22;5015772;28;20439;-78
2021/04/02 02:01:33;;;;;;;20.27;13.88;;;;;;;9.07;45.61;99448.78;5031137;28;20038;-78
2021/04/02 02:03:59;;;;;;;;;;;;;;;8.91;45.22;99448.81;5031516;28;20091;-77
2021/04/02 02:06:26;;;;;;;20.73;14.48;;;;;;;8.74;45.01;99410.34;5014556;28;20000;-78
2021/04/02 02:08:54;;;;;;;18.13;13.60;;;;;;;8.97;45.50;99427.09;5014364;28;20049;-77
2021/04/02 02:11:20;;;;;;;17.40;14.55;;;;;;;8.94;45.54;99442.41;5015646;28;20432;-77
2021/04/02 02:13:52;;;;;;;19.27;14.52;;;;;;;8.66;45.20;99378.81;5015534;28;20026;-78
2021/04/02 02:16:19;;;;;;;17.63;13.77;;;;;;;9.00;45.74;99434.66;5015494;28;20029;-78
2021/04/02 02:18:47;;;;;;;20.73;16.63;;;;;;;9.12;45.70;99432.47;5015318;28;20460;-77
2021/04/02 02:21:14;;;;;;;20.02;15.57;;;;;;;8.75;45.12;99375.16;5014324;28;20022;-77
2021/04/02 02:23:42;;;;;;;18.90;15.27;;;;;;;9.06;45.74;99436.59;5015282;28;20022;-78
2021/04/02 02:26:08;;;;;;;20.55;16.13;;;;;;;9.04;45.72;99440.41;5015351;28;20025;-77
2021/04/02 02:28:33;;;;;;;18.67;14.38;;;;;;;8.12;45.36;99286.50;5013982;28;20413;-78
2021/04/02 02:30:59;;;;;;;21.70;15.65;;;;;;;8.89;45.24;99419.19;5015252;28;20022;-77
2021/04/02 02:33:27;;;;;;;18.98;15.10;;;;;;;8.52;45.81;99370.63;5015303;28;20026;-77
2021/04/02 02:35:53;;;;;;;20.23;14.85;;;;;;;8.90;46.22;99429.56;5014063;28;20025;-77
2021/04/02 02:38:20;;;;;;;15.27;13.40;;;;;;;8.61;45.72;99392.47;5015235;28;20018;-77
2021/04/02 02:40:46;;;;;;;19.25;14.27;;;;;;;8.68;45.65;99403.13;5015183;28;20034;-78
2021/04/02 02:43:14;;;;;;;20.10;15.63;;;;;;;8.64;45.76;99399.19;5014746;28;20029;-77
2021/04/02 02:45:40;;;;;;;20.27;15.48;;;;;;;8.76;45.87;99427.63;5015007;28;20026;-77
2021/04/02 02:48:06;;;;;;;23.83;17.92;;;;;;;8.00;46.27;99309.69;5014921;28;20815;-77
2021/04/02 02:50:34;;;;;;;21.60;18.15;;;;;;;8.32;45.74;99360.63;5014847;28;20348;-77
2021/04/02 02:53:02;;;;;;;21.80;17.35;;;;;;;8.66;45.98;99424.38;5014969;28;20076;-78
2021/04/02 02:55:32;;;;;;;20.33;16.58;;;;;;;8.65;45.75;99417.47;5014831;28;20107;-77
2021/04/02 02:58:00;;;;;;;21.13;16.48;;;;;;;8.45;45.70;99398.59;5030295;28;20029;-77
2021/04/02 03:00:30;;;;;;;21.15;15.57;;;;;;;8.54;45.94;99418.63;5013747;28;20113;-77
2021/04/02 03:02:59;;;;;;;19.15;16.23;;;;;;;8.42;46.07;99411.25;5015020;28;20037;-77
2021/04/02 03:05:27;;;;;;;17.80;15.07;;;;;;;8.47;46.21;99422.09;5013672;28;20032;-77
2021/04/02 03:07:59;;;;;;;16.65;13.73;;;;;;;7.83;46.48;99335.19;5013719;28;20058;-77
2021/04/02 03:10:25;;;;;;;;;;;;;;;8.19;47.55;99426.88;5015110;28;20083;-77
2021/04/02 03:12:53;;;;;;;16.30;14.23;;;;;;;8.25;46.19;99431.47;5014833;28;19909;-77
2021/04/02 03:15:19;;;;;;;17.85;14.52;;;;;;;8.19;46.82;99426.88;5013595;28;20038;-76
2021/04/02 03:17:51;;;;;;;16.92;13.98;;;;;;;8.03;46.81;99406.66;5014642;28;20030;-77
2021/04/02 03:20:17;;;;;;;16.35;14.23;;;;;;;7.88;46.77;99389.88;5014819;28;20022;-77
2021/04/02 03:22:43;;;;;;;16.80;12.93;;;;;;;7.81;47.28;99360.81;5014587;28;20083;-77
2021/04/02 03:25:12;;;;;;;16.55;12.88;;;;;;;8.14;47.19;99413.38;5014792;28;20105;-78
2021/04/02 03:27:40;;;;;;;14.90;12.00;;;;;;;8.21;47.00;99417.84;5014444;28;20018;-77
2021/04/02 03:30:08;;;;;;;17.45;13.32;;;;;;;8.26;46.39;99412.91;5014619;28;20065;-77
2021/04/02 03:32:36;;;;;;;14.30;12.35;;;;;;;8.20;46.60;99399.59;5013508;28;20022;-76
2021/04/02 03:35:02;;;;;;;16.67;13.95;;;;;;;8.30;46.96;99400.22;5014642;28;20080;-77
2021/04/02 03:37:33;;;;;;;27.08;19.80;;;;;;;8.12;46.72;99384.63;5013380;28;20100;-77
2021/04/02 03:39:59;;;;;;;27.00;20.17;;;;;;;8.24;46.92;99401.72;5014630;28;20030;-77
2021/04/02 03:42:27;;;;;;;23.80;19.15;;;;;;;8.26;46.61;99404.19;5013095;28;20037;-77
2021/04/02 03:44:54;;;;;;;20.08;16.15;;;;;;;8.03;46.94;99369.84;5029856;28;20109;-77
2021/04/02 03:47:20;;;;;;;19.98;15.68;;;;;;;8.05;46.45;99380.19;5014401;28;20038;-77
2021/04/02 03:49:48;;;;;;;18.67;15.73;;;;;;;7.97;46.57;99388.91;5014314;28;20029;-77
2021/04/02 03:52:20;;;;;;;22.50;16.83;;;;;;;8.02;47.20;99391.03;5014693;28;20021;-77
2021/04/02 03:54:50;;;;;;;21.73;15.30;;;;;;;7.83;46.95;99374.63;5015917;28;20072;-77
2021/04/02 03:57:18;;;;;;;19.30;15.05;;;;;;;7.54;47.07;99325.19;5017924;28;20030;-78
2021/04/02 03:59:44;;;;;;;22.50;16.25;;;;;;;7.77;47.02;99345.53;5018106;28;20025;-77
2021/04/02 04:02:12;;;;;;;20.42;13.88;;;;;;;8.14;46.68;99408.13;5017977;28;20026;-76
2021/04/02 04:04:40;;;;;;;17.33;13.95;;;;;;;8.13;46.97;99407.28;5017653;28;20332;-77
2021/04/02 04:07:08;;;;;;;23.35;17.98;;;;;;;8.16;47.13;99412.22;5033283;28;20029;-77
2021/04/02 04:09:35;;;;;;;24.25;17.88;;;;;;;8.21;46.76;99409.94;5017548;28;20108;-77
2021/04/02 04:12:02;;;;;;;21.65;17.00;;;;;;;8.04;46.54;99386.44;5017721;28;20436;-77
2021/04/02 04:14:30;;;;;;;27.83;20.60;;;;;;;8.10;46.88;99383.13;5017581;28;20025;-77
2021/04/02 04:16:58;;;;;;;29.23;21.98;;;;;;;8.29;46.66;99404.69;5017539;28;20036;-77
2021/04/02 04:19:27;;;;;;;32.30;22.45;;;;;;;8.23;47.05;99392.19;5017318;28;20379;-77
2021/04/02 04:21:55;;;;;;;32.25;20.70;;;;;;;7.77;46.52;99324.50;5017430;28;20026;-77
2021/04/02 04:24:22;;;;;;;24.73;21.02;;;;;;;8.13;46.65;99383.63;5017610;28;20099;-76
2021/04/02 04:26:51;;;;;;;26.20;21.52;;;;;;;8.29;46.66;99407.31;5017209;28;20060;-77
2021/04/02 04:29:28;;;;;;;29.00;21.60;;;;;;;8.44;46.61;99415.38;5017388;28;20472;-77
2021/04/02 04:31:56;;;;;;;29.85;20.33;;;;;;;8.29;46.67;99393.34;5017484;28;20025;-77
2021/04/02 04:34:22;;;;;;;26.75;20.83;;;;;;;7.96;46.13;99348.66;5017429;28;20337;-77
2021/04/02 04:36:50;;;;;;;27.55;22.08;;;;;;;8.34;46.64;99416.53;5017162;28;20028;-77
2021/04/02 04:39:16;;;;;;;25.42;20.27;;;;;;;7.74;46.55;99299.38;5017133;28;20022;-77
2021/04/02 04:41:42;;;;;;;34.47;24.55;;;;;;;8.42;46.76;99411.25;4999586;28;20037;-76
2021/04/02 04:44:10;;;;;;;32.53;23.33;;;;;;;8.44;46.95;99404.03;5016018;28;20018;-76
2021/04/02 04:46:35;;;;;;;37.28;24.83;;;;;;;7.67;46.13;99269.50;5016917;28;20025;-77
2021/04/02 04:49:01;;;;;;;39.08;24.70;;;;;;;8.53;46.84;99395.13;5017018;28;20033;-77
2021/04/02 04:51:31;;;;;;;36.03;24.38;;;;;;;8.13;46.60;99336.28;5016923;28;20028;-76
2021/04/02 04:53:58;;;;;;;32.55;25.50;;;;;;;8.55;46.42;99395.78;5016884;28;20364;-76
2021/04/02 04:56:27;;;;;;;38.15;26.60;;;;;;;8.59;46.92;99400.53;5016965;28;20029;-77
2021/04/02 04:58:57;;;;;;;37.47;27.58;;;;;;;8.45;46.69;99372.28;5016815;28;20436;-78
2021/04/02 05:01:25;;;;;;;41.05;28.70;;;;;;;8.70;46.96;99401.97;5016668;28;20108;-77
2021/04/02 05:03:52;;;;;;;38.55;30.00;;;;;;;8.78;47.03;99416.94;5016284;28;20040;-77
2021/04/02 05:06:20;;;;;;;37.63;29.20;;;;;;;8.51;47.43;99358.44;5031601;28;20025;-77
2021/04/02 05:08:47;;;;;;;33.90;25.83;;;;;;;8.89;47.45;99398.13;5016167;28;20424;-77
2021/04/02 05:11:15;;;;;;;38.08;28.88;;;;;;;8.90;47.75;99400.59;5016498;28;20056;-77
2021/04/02 05:13:43;;;;;;;37.97;28.92;;;;;;;8.68;47.66;99356.59;5015333;28;20036;-77
2021/04/02 05:16:10;;;;;;;36.30;27.48;;;;;;;8.99;48.04;99395.31;5016574;28;20352;-77
2021/04/02 05:18:36;;;;;;;35.45;28.30;;;;;;;9.09;47.30;99391.47;5016403;28;20026;-77
2021/04/02 05:21:03;;;;;;;39.30;27.42;;;;;;;9.14;47.48;99389.16;5016355;28;20033;-77
2021/04/02 05:23:28;;;;;;;43.15;30.77;;;;;;;9.27;47.76;99399.13;5016273;28;20344;-77
2021/04/02 05:25:54;;;;;;;55.03;41.50;;;;;;;9.38;46.89;99395.28;5016253;28;20036;-77
2021/04/02 05:28:20;;;;;;;73.20;46.03;;;;;;;9.44;47.06;99397.22;5015164;28;20026;-77
2021/04/02 05:30:45;;;;;;;68.00;47.03;;;;;;;8.69;46.27;99271.38;5016002;28;20441;-77
2021/04/02 05:33:13;;;;;;;81.65;51.83;;;;;;;9.44;46.65;99376.97;5016218;28;20368;-77
2021/04/02 05:35:39;;;;;;;66.47;46.58;;;;;;;9.37;46.23;99383.91;5012856;28;20026;-76
2021/04/02 05:38:04;;;;;;;67.07;46.42;;;;;;;9.51;45.85;99387.63;5016062;28;20194;-77
2021/04/02 05:40:30;;;;;;;67.22;45.22;;;;;;;9.64;46.30;99382.59;5011827;28;20441;-77
2021/04/02 05:43:15;;;;;;;60.55;44.17;;;;;;;9.52;46.09;99353.19;5015958;28;20025;-77
2021/04/02 05:45:41;;;;;;;29.70;24.20;;;;;;;9.21;46.08;99287.38;5015362;28;20037;-77
2021/04/02 05:48:09;;;;;;;27.45;22.27;;;;;;;9.95;46.47;99393.09;4997605;28;20030;-78
2021/04/02 05:50:37;;;;;;;24.80;18.67;;;;;;;9.93;46.31;99373.97;4995116;28;20112;-78
2021/04/02 05:53:08;;;;;;;25.00;18.60;;;;;;;10.10;46.46;99393.13;4995202;28;20026;-77
2021/04/02 05:55:37;;;;;;;23.77;19.90;;;;;;;9.81;46.41;99330.56;4999123;28;20037;-77
2021/04/02 05:58:05;;;;;;;26.00;22.30;;;;;;;9.83;46.18;99316.22;5022196;28;20029;-77
2021/04/02 06:00:32;;;;;;;25.92;21.58;;;;;;;10.39;45.95;99380.00;5009911;28;20037;-77
2021/04/02 06:02:58;;;;;;;28.63;21.80;;;;;;;10.49;45.66;99379.78;5026912;28;20033;-77
2021/04/02 06:05:24;;;;;;;27.95;22.35;;;;;;;10.59;45.62;99376.84;5019903;28;20468;-77
2021/04/02 06:07:52;;;;;;;28.15;19.80;;;;;;;10.31;45.40;99313.28;5010749;28;20033;-78
2021/04/02 06:10:17;;;;;;;26.92;21.45;;;;;;;10.27;45.05;99297.00;5003845;28;20042;-78
2021/04/02 06:12:43;;;;;;;25.75;20.70;;;;;;;10.87;45.10;99369.91;5013885;28;20491;-79
2021/04/02 06:15:09;;;;;;;27.95;21.73;;;;;;;10.90;45.00;99366.09;5013248;28;20028;-78
2021/04/02 06:18:11;;;;;;;29.55;22.65;;;;;;;10.93;45.06;99355.97;4995921;28;20101;-77
2021/04/02 06:20:43;;;;;;;23.63;19.57;;;;;;;11.02;45.25;99354.03;4974371;28;20134;-78
2021/04/02 06:23:14;;;;;;;24.08;19.88;;;;;;;10.56;45.15;99253.16;5013327;28;20257;-77
2021/04/02 06:25:50;;;;;;;30.40;21.05;;;;;;;11.25;44.28;99354.75;5010578;28;20060;-81
2021/04/02 06:28:20;;;;;;;28.85;21.30;;;;;;;11.32;44.91;99350.34;5000707;28;20034;-80
2021/04/02 06:30:53;;;;;;;23.67;18.73;;;;;;;11.43;44.60;99341.91;5011010;28;20037;-79
2021/04/02 06:33:19;;;;;;;23.80;20.20;;;;;;;11.49;44.64;99368.59;5002681;28;20030;-80
2021/04/02 06:35:48;;;;;;;22.65;19.38;;;;;;;11.54;44.85;99340.59;5005999;28;20091;-78
2021/04/02 06:38:13;;;;;;;24.40;18.52;;;;;;;11.17;44.35;99274.75;5010550;28;20014;-79
2021/04/02 06:40:38;;;;;;;23.70;17.85;;;;;;;11.05;44.41;99258.56;5014311;28;20037;-77
2021/04/02 06:43:05;;;;;;;24.35;17.83;;;;;;;11.36;44.72;99300.56;4997152;28;20037;-76
2021/04/02 06:45:30;;;;;;;24.13;17.77;;;;;;;11.45;44.97;99304.72;4995185;28;20075;-76
2021/04/02 06:48:11;;;;;;;23.88;18.02;;;;;;;11.78;44.90;99345.53;5005373;28;20100;-77
2021/04/02 06:50:36;;;;;;;18.35;15.57;;;;;;;12.00;44.69;99369.34;5014832;28;20034;-77
2021/04/02 06:53:04;;;;;;;21.25;15.73;;;;;;;11.56;44.30;99284.88;5012867;28;20429;-77
2021/04/02 06:55:30;;;;;;;21.75;15.25;;;;;;;12.16;44.56;99366.41;5009852;28;20107;-77
2021/04/02 06:57:57;;;;;;;19.48;15.60;;;;;;;11.74;44.29;99295.81;5012100;28;20576;-76
2021/04/02 07:00:26;;;;;;;16.55;13.90;;;;;;;11.57;43.65;99265.38;5013365;28;20101;-76
2021/04/02 07:02:53;;;;;;;18.05;14.10;;;;;;;12.12;43.49;99338.69;5005622;28;20045;-77
2021/04/02 07:05:21;;;;;;;18.25;14.73;;;;;;;11.97;43.59;99290.34;5018211;28;20318;-77
2021/04/02 07:08:01;;;;;;;19.27;13.90;;;;;;;12.44;43.28;99341.75;5003963;28;20022;-77
2021/04/02 07:10:28;;;;;;;15.68;12.88;;;;;;;12.20;42.85;99306.78;5003122;28;20038;-78
2021/04/02 07:12:54;;;;;;;14.80;13.20;;;;;;;12.62;42.60;99353.47;5006653;28;20033;-77
2021/04/02 07:15:20;;;;;;;24.02;13.80;;;;;;;12.62;42.80;99344.69;5007018;28;20025;-77
2021/04/02 07:17:46;;;;;;;17.73;13.48;;;;;;;12.62;42.84;99332.28;5009495;28;20444;-78
2021/04/02 07:20:13;;;;;;;18.25;13.13;;;;;;;12.12;41.94;99250.53;5004938;28;20026;-77
2021/04/02 07:22:40;;;;;;;17.40;14.00;;;;;;;12.83;41.76;99352.56;5009538;28;20433;-77
2021/04/02 07:25:06;;;;;;;18.42;13.35;;;;;;;12.53;42.04;99306.16;5006278;28;20034;-78
2021/04/02 07:27:32;;;;;;;17.63;14.18;;;;;;;12.31;41.51;99271.00;5008679;28;20022;-76
2021/04/02 07:29:58;;;;;;;15.45;13.05;;;;;;;12.66;41.22;99311.53;5007107;28;20031;-77
2021/04/02 07:32:24;;;;;;;17.67;13.80;;;;;;;13.02;41.29;99359.78;5016250;28;20340;-78
2021/04/02 07:34:51;;;;;;;17.38;13.10;;;;;;;13.10;41.32;99356.13;5009706;28;20440;-81
2021/04/02 07:37:20;;;;;;;14.00;12.00;;;;;;;13.22;40.84;99351.94;5008854;28;20405;-77
2021/04/02 07:39:48;;;;;;;18.08;13.32;;;;;;;12.81;40.81;99266.34;5011490;28;20354;-78
2021/04/02 07:42:13;;;;;;;16.77;11.80;;;;;;;12.93;40.22;99278.81;5007323;28;20038;-79
2021/04/02 07:44:44;;;;;;;15.10;12.60;;;;;;;13.38;40.17;99347.28;5008929;28;20456;-78
2021/04/02 07:47:12;;;;;;;20.20;16.80;;;;;;;13.49;40.21;99342.22;5013428;28;20050;-78
2021/04/02 07:49:54;;;;;;;20.73;15.90;;;;;;;13.59;39.87;99334.69;5010861;28;20060;-76
2021/04/02 07:52:37;;;;;;;16.58;13.65;;;;;;;13.66;39.48;99335.50;5007122;28;20023;-78
2021/04/02 07:55:14;;;;;;;16.45;12.27;;;;;;;13.59;39.69;99320.59;4998238;28;20037;-77
2021/04/02 07:58:00;;;;;;;15.98;12.27;;;;;;;13.45;39.18;99292.44;5014405;28;20039;-78
2021/04/02 08:00:28;;;;;;;13.65;11.82;;;;;;;13.75;38.95;99333.47;5011941;28;20087;-79
2021/04/02 08:03:33;;;;;;;13.02;10.00;;;;;;;13.73;38.69;99330.22;5010860;28;20025;-78
2021/04/02 08:06:01;;;;;;;11.27;9.27;;;;;;;13.84;38.98;99323.47;4944407;28;20111;-79
2021/04/02 08:08:37;;;;;;;14.63;12.93;;;;;;;13.96;39.00;99325.31;4956827;29;20106;-76
2021/04/02 08:11:20;;;;;;;15.95;13.20;;;;;;;14.13;38.68;99323.06;4983101;28;20061;-76
2021/04/02 08:14:12;;;;;;;17.80;11.73;;;;;;;14.31;38.73;99311.81;5006993;28;20041;-79
2021/04/02 08:16:56;;;;;;;12.75;11.35;;;;;;;14.47;38.91;99299.94;4999382;28;20022;-78
2021/04/02 08:19:31;;;;;;;14.68;11.43;;;;;;;14.55;38.87;99297.88;5015418;28;20022;-78
2021/04/02 08:22:09;;;;;;;13.57;11.32;;;;;;;14.32;39.02;99253.19;5015153;28;20040;-77
2021/04/02 08:24:38;;;;;;;12.98;11.07;;;;;;;14.71;39.13;99296.59;5014390;28;20026;-78
2021/04/02 08:27:05;;;;;;;14.45;10.70;;;;;;;14.03;39.13;99181.16;5011147;28;20478;-79
2021/04/02 08:29:31;;;;;;;11.27;10.13;;;;;;;14.84;39.07;99293.88;5011426;28;20041;-78
2021/04/02 08:32:08;;;;;;;12.30;10.95;;;;;;;14.79;39.00;99279.59;5012762;28;20037;-79
2021/04/02 08:34:35;;;;;;;14.02;11.10;;;;;;;15.12;38.93;99282.09;5013857;28;20035;-78
2021/04/02 08:37:04;;;;;;;12.45;10.85;;;;;;;15.34;38.64;99285.25;5029027;28;20495;-77
2021/04/02 08:39:29;;;;;;;14.13;11.43;;;;;;;15.44;38.43;99286.38;5004071;28;20026;-79
2021/04/02 08:42:01;;;;;;;11.35;10.20;;;;;;;15.60;38.10;99290.41;4998294;28;20113;-77
2021/04/02 08:44:51;;;;;;;13.32;10.82;;;;;;;15.54;37.94;99240.69;4997317;28;20105;-77
2021/04/02 08:47:18;;;;;;;14.23;11.77;;;;;;;15.81;38.03;99252.78;5009377;28;20363;-76
2021/04/02 08:49:52;;;;;;;14.25;11.30;;;;;;;15.69;37.73;99203.94;5001832;28;20026;-76
2021/04/02 08:52:20;;;;;;;18.17;13.50;;;;;;;16.02;37.80;99226.78;4996985;28;20034;-77
2021/04/02 08:54:50;;;;;;;17.02;15.13;;;;;;;16.41;37.42;99265.50;4996760;28;20022;-77
2021/04/02 08:57:16;;;;;;;13.35;11.95;;;;;;;16.44;37.66;99265.06;5004091;28;20033;-79
2021/04/02 08:59:47;;;;;;;13.48;10.63;;;;;;;16.49;37.42;99266.03;5010814;28;20026;-75
2021/04/02 09:02:13;;;;;;;14.57;13.02;;;;;;;16.65;37.55;99242.47;5008422;28;20026;-78
2021/04/02 09:04:40;;;;;;;11.90;10.63;;;;;;;16.73;37.07;99220.84;4995563;28;20033;-78
2021/04/02 09:07:06;;;;;;;13.70;11.15;;;;;;;16.88;37.34;99218.59;5000573;28;20076;-78
2021/04/02 09:09:32;;;;;;;18.90;15.70;;;;;;;16.79;37.02;99191.44;5006208;28;20457;-77
2021/04/02 09:12:08;;;;;;;14.55;12.40;;;;;;;17.05;37.38;99224.09;4999347;28;20026;-77
2021/04/02 09:14:33;;;;;;;12.70;11.38;;;;;;;17.11;36.90;99208.03;5004219;28;20468;-76
2021/04/02 09:16:59;;;;;;;14.48;9.98;;;;;;;17.17;36.57;99186.81;5008911;28;20117;-78
2021/04/02 09:19:26;;;;;;;14.18;10.05;;;;;;;17.48;36.45;99223.88;5010851;28;20054;-76
2021/04/02 09:21:53;;;;;;;13.02;11.27;;;;;;;17.48;36.44;99216.66;5007616;28;20429;-79
2021/04/02 09:24:23;;;;;;;12.45;11.13;;;;;;;17.58;36.23;99217.94;5010846;28;20037;-75
2021/04/02 09:26:52;;;;;;;12.15;10.38;;;;;;;17.61;36.01;99212.97;5012328;28;20033;-79
2021/04/02 09:29:20;;;;;;;12.18;9.40;;;;;;;17.67;35.94;99209.41;5009898;28;20463;-76
2021/04/02 09:31:47;;;;;;;9.65;8.65;;;;;;;16.99;36.05;99073.81;5002830;28;20150;-78
2021/04/02 09:34:18;;;;;;;12.43;9.68;;;;;;;17.88;35.70;99153.78;5009971;28;20026;-78
2021/04/02 09:36:46;;;;;;;23.23;9.43;;;;;;;18.29;35.26;99187.50;5009797;28;20030;-77
2021/04/02 09:39:24;;;;;;;9.20;8.30;;;;;;;18.62;35.06;99202.91;5010745;28;20017;-75
2021/04/02 09:41:55;;;;;;;11.93;8.85;;;;;;;18.82;34.77;99187.25;5003214;28;20041;-76
2021/04/02 09:44:23;;;;;;;10.23;8.90;;;;;;;19.03;34.41;99186.56;5001150;28;20018;-79
2021/04/02 09:46:50;;;;;;;13.35;9.52;;;;;;;19.25;34.19;99185.84;5009612;28;20021;-78
2021/04/02 09:49:24;;;;;;;9.98;8.50;;;;;;;19.51;33.74;99184.41;5005736;28;20030;-78
2021/04/02 09:51:55;;;;;;;8.80;7.90;;;;;;;19.64;33.40;99179.53;5006965;28;20057;-78
2021/04/02 09:54:24;;;;;;;9.20;7.30;;;;;;;19.71;33.27;99178.56;5013692;28;20064;-81
2021/04/02 09:56:52;;;;;;;9.10;8.20;;;;;;;19.34;33.18;99120.16;5022607;28;20054;-77
2021/04/02 09:59:18;;;;;;;9.95;8.68;;;;;;;19.33;33.29;99134.59;5013061;28;20026;-76
2021/04/02 10:01:44;;;;;;;8.32;7.53;;;;;;;19.25;33.33;99159.06;5010335;28;20095;-78
2021/04/02 10:04:12;;;;;;;8.13;7.35;;;;;;;19.04;33.70;99134.66;5012259;28;20026;-77
2021/04/02 10:06:38;;;;;;;8.93;7.63;;;;;;;19.24;33.70;99160.13;4996456;28;20432;-79
2021/04/02 10:09:05;;;;;;;9.00;8.10;;;;;;;18.89;33.70;99104.16;5004307;28;20041;-78
2021/04/02 10:11:33;;;;;;;10.95;8.27;;;;;;;19.24;33.71;99152.09;5000983;28;20032;-77
2021/04/02 10:13:58;;;;;;;9.95;7.95;;;;;;;18.95;33.81;99101.34;5004764;28;20026;-78
2021/04/02 10:16:24;;;;;;;7.90;7.07;;;;;;;19.33;33.58;99146.13;5004269;28;20327;-78
2021/04/02 10:18:50;;;;;;;9.02;7.53;;;;;;;19.19;33.45;99109.19;5003402;28;20094;-75
2021/04/02 10:21:23;;;;;;;8.38;7.57;;;;;;;19.39;33.59;99120.22;5008292;28;20053;-78
2021/04/02 10:23:50;;;;;;;10.57;7.82;;;;;;;19.53;33.41;99140.28;5010369;28;20033;-79
2021/04/02 10:26:16;;;;;;;9.00;8.10;;;;;;;19.62;33.20;99143.34;5002866;28;20023;-76
2021/04/02 10:28:42;;;;;;;8.73;7.82;;;;;;;19.56;33.01;99121.03;5001597;28;20019;-78
2021/04/02 10:31:09;;;;;;;10.70;7.88;;;;;;;19.77;32.73;99142.75;4997810;28;20450;-76
2021/04/02 10:33:35;;;;;;;10.02;7.80;;;;;;;19.35;33.04;99065.56;5011795;28;20053;-79
2021/04/02 10:36:01;;;;;;;8.23;7.38;;;;;;;19.89;32.63;99138.91;5009455;28;20672;-78
2021/04/02 10:38:27;;;;;;;8.25;6.90;;;;;;;19.16;32.39;98983.91;5011418;28;20068;-80
2021/04/02 10:40:53;;;;;;;60.75;52.80;;;;;;;20.09;32.16;99116.94;5002725;28;20301;-79
2021/04/02 10:43:19;;;;;;;15.85;14.15;;;;;;;20.17;31.86;99107.63;5009478;28;20026;-78
2021/04/02 10:45:45;;;;;;;11.68;9.25;;;;;;;20.17;31.71;99107.63;5010593;28;20032;-77
2021/04/02 10:48:10;;;;;;;8.57;7.68;;;;;;;19.65;31.63;99033.84;5014094;28;20433;-81
2021/04/02 10:50:38;;;;;;;9.40;7.68;;;;;;;20.01;31.83;99069.09;5011049;28;20037;-80
2021/04/02 10:53:04;;;;;;;11.07;7.35;;;;;;;20.29;31.78;99095.72;5013087;28;20040;-76
2021/04/02 10:55:29;;;;;;;10.10;8.15;;;;;;;20.30;31.59;99062.47;5007849;28;20026;-80
2021/04/02 10:57:55;;;;;;;9.68;8.68;;;;;;;19.94;31.58;98982.75;5007669;28;20439;-77
2021/04/02 11:00:22;;;;;;;8.27;7.18;;;;;;;20.25;31.40;99002.63;5003227;28;20026;-77
2021/04/02 11:02:47;;;;;;;7.82;6.90;;;;;;;21.01;30.74;99104.47;5009666;28;20085;-81
2021/04/02 11:05:13;;;;;;;8.30;7.20;;;;;;;20.36;30.51;98998.16;5008729;28;20377;-78
2021/04/02 11:07:39;;;;;;;7.40;6.70;;;;;;;21.04;30.35;99082.47;5010750;28;20034;-77
2021/04/02 11:10:09;;;;;;;7.95;7.03;;;;;;;21.09;30.31;99077.16;5014950;28;20122;-79
2021/04/02 11:12:35;;;;;;;13.32;11.98;;;;;;;21.32;30.16;99075.97;5018298;28;20125;-78
2021/04/02 11:15:02;;;;;;;10.18;7.78;;;;;;;21.42;29.95;99070.69;5016919;28;20128;-78
2021/04/02 11:17:28;;;;;;;6.47;5.85;;;;;;;21.24;30.08;99037.00;5016656;28;20041;-79
2021/04/02 11:19:55;;;;;;;11.30;8.20;;;;;;;21.39;30.26;99061.25;5015070;28;20436;-76
2021/04/02 11:22:22;;;;;;;9.48;7.25;;;;;;;21.43;30.14;99045.44;5007455;28;20085;-75
2021/04/02 11:24:48;;;;;;;8.00;6.13;;;;;;;21.45;30.05;99046.78;5009438;28;20326;-77
2021/04/02 11:27:14;;;;;;;6.80;6.10;;;;;;;21.60;30.10;99046.09;5011906;28;20105;-75
2021/04/02 11:29:40;;;;;;;9.68;7.03;;;;;;;21.68;29.79;99042.09;5013710;28;20109;-80
2021/04/02 11:32:09;;;;;;;9.85;8.65;;;;;;;21.77;29.71;99032.44;5015916;28;20102;-80